createdAt,value
2018-09-17T00:00:03.476Z,99.99
2018-09-17T00:01:03.717Z,99.99
2018-09-17T00:02:03.956Z,99.99
2018-09-17T00:03:04.195Z,99.99
2018-09-17T00:04:04.435Z,99.99
2018-09-17T00:05:04.673Z,99.99
2018-09-17T00:06:04.912Z,99.99
2018-09-17T00:07:05.151Z,99.99
2018-09-17T00:08:05.389Z,99.99
2018-09-17T00:09:05.629Z,99.99
2018-09-17T00:10:05.865Z,99.99
2018-09-17T00:11:06.113Z,99.99
2018-09-17T00:12:06.342Z,99.99
2018-09-17T00:13:06.582Z,99.99
2018-09-17T00:14:06.821Z,99.99
2018-09-17T00:15:07.058Z,99.99
2018-09-17T00:16:07.297Z,99.99
2018-09-17T00:17:07.536Z,99.99
2018-09-17T00:18:07.774Z,99.84
2018-09-17T00:19:08.014Z,99.65
2018-09-17T00:20:08.252Z,98.79
2018-09-17T00:21:08.492Z,96.80
2018-09-17T00:22:08.732Z,96.75
2018-09-17T00:23:08.971Z,96.46
2018-09-17T00:24:09.209Z,96.12
2018-09-17T00:25:09.448Z,96.32
2018-09-17T00:26:09.690Z,96.80
2018-09-17T00:27:09.926Z,97.46
2018-09-17T00:28:10.164Z,97.46
2018-09-17T00:29:10.406Z,99.08
2018-09-17T00:30:10.643Z,99.99
2018-09-17T00:31:10.882Z,99.99
2018-09-17T00:32:11.125Z,99.99
2018-09-17T00:33:11.362Z,99.99
2018-09-17T00:34:11.604Z,99.99
2018-09-17T00:35:11.837Z,99.99
2018-09-17T00:36:12.077Z,99.99
2018-09-17T00:37:12.320Z,99.99
2018-09-17T00:38:12.554Z,99.99
2018-09-17T00:39:12.791Z,99.65
2018-09-17T00:40:13.028Z,99.84
2018-09-17T00:41:13.266Z,99.99
2018-09-17T00:42:13.505Z,99.99
2018-09-17T00:43:13.746Z,99.99
2018-09-17T00:44:13.984Z,98.55
2018-09-17T00:45:14.222Z,98.99
2018-09-17T00:46:14.459Z,99.99
2018-09-17T00:47:14.697Z,99.99
2018-09-17T00:48:14.936Z,98.74
2018-09-17T00:49:15.175Z,98.36
2018-09-17T00:50:15.415Z,96.84
2018-09-17T00:51:15.651Z,95.75
2018-09-17T00:52:15.891Z,96.60
2018-09-17T00:53:16.127Z,96.22
2018-09-17T00:54:16.366Z,96.12
2018-09-17T00:55:16.603Z,96.98
2018-09-17T00:56:16.843Z,97.08
2018-09-17T00:57:17.079Z,96.70
2018-09-17T00:58:17.319Z,96.12
2018-09-17T00:59:17.558Z,96.03
2018-09-17T01:00:17.796Z,95.46
2018-09-17T01:01:18.037Z,96.41
2018-09-17T01:02:18.273Z,96.03
2018-09-17T01:03:18.513Z,96.70
2018-09-17T01:04:18.750Z,96.32
2018-09-17T01:05:18.988Z,96.12
2018-09-17T01:06:19.228Z,95.46
2018-09-17T01:07:19.470Z,96.12
2018-09-17T01:08:19.705Z,96.65
2018-09-17T01:09:19.942Z,96.36
2018-09-17T01:10:20.181Z,95.03
2018-09-17T01:11:20.419Z,94.37
2018-09-17T01:12:20.660Z,93.03
2018-09-17T01:13:20.889Z,93.89
2018-09-17T01:14:21.134Z,95.60
2018-09-17T01:15:21.372Z,98.22
2018-09-17T01:16:21.610Z,99.18
2018-09-17T01:17:21.849Z,99.99
2018-09-17T01:18:22.090Z,99.99
2018-09-17T01:19:22.327Z,99.99
2018-09-17T01:20:22.565Z,99.99
2018-09-17T01:21:22.804Z,99.46
2018-09-17T01:22:23.041Z,98.99
2018-09-17T01:23:23.277Z,99.18
2018-09-17T01:24:23.517Z,99.84
2018-09-17T01:25:23.754Z,99.84
2018-09-17T01:26:23.992Z,99.99
2018-09-17T01:27:24.230Z,99.99
2018-09-17T01:28:24.470Z,98.46
2018-09-17T01:29:24.707Z,98.74
2018-09-17T01:30:24.983Z,97.41
2018-09-17T01:31:25.182Z,96.12
2018-09-17T01:32:25.421Z,96.12
2018-09-17T01:33:25.656Z,96.41
2018-09-17T01:34:25.893Z,99.99
2018-09-17T01:35:26.129Z,99.99
2018-09-17T01:36:26.368Z,99.99
2018-09-17T01:37:26.606Z,99.99
2018-09-17T01:38:26.847Z,99.60
2018-09-17T01:39:27.084Z,99.98
2018-09-17T01:40:27.320Z,99.13
2018-09-17T01:41:27.561Z,97.51
2018-09-17T01:42:27.799Z,95.79
2018-09-17T01:43:28.034Z,95.03
2018-09-17T01:44:28.272Z,95.12
2018-09-17T01:45:28.516Z,94.56
2018-09-17T01:46:28.748Z,93.79
2018-09-17T01:47:28.986Z,94.46
2018-09-17T01:48:29.224Z,94.08
2018-09-17T01:49:29.465Z,95.89
2018-09-17T01:50:29.703Z,94.17
2018-09-17T01:51:29.940Z,94.17
2018-09-17T01:52:30.179Z,93.70
2018-09-17T01:53:30.416Z,93.41
2018-09-17T01:54:30.654Z,92.18
2018-09-17T01:55:30.892Z,93.70
2018-09-17T01:56:31.130Z,94.17
2018-09-17T01:57:31.369Z,94.08
2018-09-17T01:58:31.606Z,94.17
2018-09-17T01:59:31.844Z,93.89
2018-09-17T02:00:32.084Z,93.89
2018-09-17T02:01:32.320Z,93.32
2018-09-17T02:02:32.558Z,92.03
2018-09-17T02:03:32.796Z,89.08
2018-09-17T02:04:33.033Z,87.56
2018-09-17T02:05:33.271Z,86.80
2018-09-17T02:06:33.510Z,85.66
2018-09-17T02:07:33.756Z,87.41
2018-09-17T02:08:34.053Z,89.03
2018-09-17T02:09:34.282Z,90.46
2018-09-17T02:10:34.462Z,89.98
2018-09-17T02:11:34.701Z,90.36
2018-09-17T02:12:34.938Z,90.75
2018-09-17T02:13:35.176Z,90.94
2018-09-17T02:14:35.414Z,91.89
2018-09-17T02:15:35.653Z,92.46
2018-09-17T02:16:35.889Z,92.94
2018-09-17T02:17:36.128Z,92.13
2018-09-17T02:18:36.366Z,91.17
2018-09-17T02:19:36.603Z,88.60
2018-09-17T02:20:36.842Z,86.04
2018-09-17T02:21:37.082Z,85.94
2018-09-17T02:22:37.320Z,86.22
2018-09-17T02:23:37.558Z,86.61
2018-09-17T02:24:37.796Z,88.75
2018-09-17T02:25:38.034Z,90.94
2018-09-17T02:26:38.270Z,92.27
2018-09-17T02:27:38.508Z,93.03
2018-09-17T02:28:38.745Z,93.13
2018-09-17T02:29:38.982Z,91.75
2018-09-17T02:30:39.220Z,91.37
2018-09-17T02:31:39.461Z,90.89
2018-09-17T02:32:39.697Z,89.56
2018-09-17T02:33:39.936Z,88.42
2018-09-17T02:34:40.174Z,88.70
2018-09-17T02:35:40.411Z,88.23
2018-09-17T02:36:40.651Z,87.18
2018-09-17T02:37:40.893Z,86.90
2018-09-17T02:38:41.129Z,86.04
2018-09-17T02:39:41.366Z,86.90
2018-09-17T02:40:41.602Z,87.46
2018-09-17T02:41:41.841Z,88.70
2018-09-17T02:42:42.077Z,89.75
2018-09-17T02:43:42.316Z,91.27
2018-09-17T02:44:42.554Z,92.03
2018-09-17T02:45:42.790Z,92.60
2018-09-17T02:46:43.032Z,91.94
2018-09-17T02:47:43.269Z,90.61
2018-09-17T02:48:43.508Z,88.79
2018-09-17T02:49:43.746Z,87.75
2018-09-17T02:50:43.987Z,84.89
2018-09-17T02:51:44.221Z,83.52
2018-09-17T02:52:44.460Z,80.76
2018-09-17T02:53:44.826Z,79.52
2018-09-17T02:54:44.935Z,81.43
2018-09-17T02:55:45.173Z,82.76
2018-09-17T02:56:45.410Z,83.42
2018-09-17T02:57:45.649Z,82.76
2018-09-17T02:58:45.888Z,84.38
2018-09-17T02:59:46.129Z,85.94
2018-09-17T03:00:46.367Z,87.65
2018-09-17T03:01:46.605Z,88.89
2018-09-17T03:02:46.841Z,89.14
2018-09-17T03:03:47.080Z,88.56
2018-09-17T03:04:47.317Z,87.61
2018-09-17T03:05:47.559Z,85.71
2018-09-17T03:06:47.795Z,85.42
2018-09-17T03:07:48.033Z,84.56
2018-09-17T03:08:48.269Z,84.76
2018-09-17T03:09:48.507Z,85.42
2018-09-17T03:10:48.743Z,85.80
2018-09-17T03:11:48.984Z,86.85
2018-09-17T03:12:49.218Z,86.85
2018-09-17T03:13:49.458Z,84.56
2018-09-17T03:14:49.699Z,83.65
2018-09-17T03:15:49.932Z,87.56
2018-09-17T03:16:50.171Z,88.42
2018-09-17T03:17:50.411Z,87.52
2018-09-17T03:18:50.648Z,86.85
2018-09-17T03:19:50.887Z,84.38
2018-09-17T03:20:51.124Z,85.71
2018-09-17T03:21:51.364Z,87.52
2018-09-17T03:22:51.602Z,85.80
2018-09-17T03:23:51.837Z,84.95
2018-09-17T03:24:52.076Z,82.86
2018-09-17T03:25:52.313Z,81.05
2018-09-17T03:26:52.550Z,82.86
2018-09-17T03:27:52.789Z,84.28
2018-09-17T03:28:53.026Z,83.90
2018-09-17T03:29:53.263Z,82.95
2018-09-17T03:30:53.516Z,84.28
2018-09-17T03:31:53.747Z,84.52
2018-09-17T03:32:53.980Z,85.56
2018-09-17T03:33:54.218Z,87.85
2018-09-17T03:34:54.456Z,87.27
2018-09-17T03:35:54.692Z,87.56
2018-09-17T03:36:54.929Z,85.56
2018-09-17T03:37:55.166Z,87.23
2018-09-17T03:38:55.404Z,86.38
2018-09-17T03:39:55.642Z,85.99
2018-09-17T03:40:55.880Z,86.85
2018-09-17T03:41:56.117Z,86.57
2018-09-17T03:42:56.358Z,87.42
2018-09-17T03:43:56.592Z,90.84
2018-09-17T03:44:56.829Z,94.74
2018-09-17T03:45:57.065Z,87.61
2018-09-17T03:46:57.316Z,89.04
2018-09-17T03:47:57.547Z,87.23
2018-09-17T03:48:57.782Z,88.28
2018-09-17T03:49:58.018Z,92.27
2018-09-17T03:50:58.254Z,98.69
2018-09-17T03:51:58.490Z,99.99
2018-09-17T03:52:58.730Z,99.84
2018-09-17T03:53:58.964Z,98.88
2018-09-17T03:54:59.198Z,96.65
2018-09-17T03:55:59.434Z,95.70
2018-09-17T03:56:59.670Z,96.17
2018-09-17T03:57:59.907Z,95.03
2018-09-17T03:59:00.144Z,87.85
2018-09-17T04:00:00.394Z,86.43
2018-09-17T04:01:00.630Z,89.47
2018-09-17T04:02:00.866Z,89.37
2018-09-17T04:03:01.102Z,87.38
2018-09-17T04:04:01.340Z,86.33
2018-09-17T04:05:01.578Z,82.81
2018-09-17T04:06:01.812Z,82.05
2018-09-17T04:07:02.047Z,82.05
2018-09-17T04:08:02.285Z,81.77
2018-09-17T04:09:02.522Z,79.96
2018-09-17T04:10:02.759Z,79.77
2018-09-17T04:11:03.001Z,84.43
2018-09-17T04:12:03.232Z,83.00
2018-09-17T04:13:03.467Z,81.77
2018-09-17T04:14:03.707Z,82.91
2018-09-17T04:15:03.942Z,82.91
2018-09-17T04:16:04.174Z,81.86
2018-09-17T04:17:04.411Z,79.58
2018-09-17T04:18:04.647Z,76.25
2018-09-17T04:19:04.884Z,70.83
2018-09-17T04:20:05.120Z,68.17
2018-09-17T04:21:05.358Z,66.36
2018-09-17T04:22:05.596Z,68.17
2018-09-17T04:23:05.830Z,66.84
2018-09-17T04:24:06.066Z,67.32
2018-09-17T04:25:06.303Z,69.31
2018-09-17T04:26:06.539Z,69.31
2018-09-17T04:27:06.774Z,70.93
2018-09-17T04:28:07.011Z,70.58
2018-09-17T04:29:07.248Z,72.58
2018-09-17T04:30:07.484Z,73.44
2018-09-17T04:31:07.721Z,73.06
2018-09-17T04:32:07.972Z,73.63
2018-09-17T04:33:08.254Z,74.48
2018-09-17T04:34:08.431Z,75.72
2018-09-17T04:35:08.672Z,76.86
2018-09-17T04:36:08.905Z,77.87
2018-09-17T04:37:09.142Z,77.15
2018-09-17T04:38:09.379Z,77.77
2018-09-17T04:39:09.615Z,77.77
2018-09-17T04:40:09.853Z,76.25
2018-09-17T04:41:10.092Z,73.02
2018-09-17T04:42:10.325Z,70.07
2018-09-17T04:43:10.562Z,68.07
2018-09-17T04:44:10.799Z,66.74
2018-09-17T04:45:11.035Z,66.74
2018-09-17T04:46:11.270Z,66.94
2018-09-17T04:47:11.508Z,65.22
2018-09-17T04:48:11.745Z,65.41
2018-09-17T04:49:11.981Z,66.27
2018-09-17T04:50:12.219Z,68.46
2018-09-17T04:51:12.456Z,68.74
2018-09-17T04:52:12.692Z,69.12
2018-09-17T04:53:12.932Z,67.66
2018-09-17T04:54:13.167Z,66.80
2018-09-17T04:55:13.404Z,65.09
2018-09-17T04:56:13.640Z,63.86
2018-09-17T04:57:13.931Z,62.81
2018-09-17T04:58:14.117Z,62.43
2018-09-17T04:59:14.354Z,62.53
2018-09-17T05:00:14.590Z,62.91
2018-09-17T05:01:14.827Z,62.72
2018-09-17T05:02:15.064Z,63.01
2018-09-17T05:03:15.304Z,61.87
2018-09-17T05:04:15.537Z,61.58
2018-09-17T05:05:15.773Z,61.58
2018-09-17T05:06:16.012Z,60.35
2018-09-17T05:07:16.259Z,58.92
2018-09-17T05:08:16.492Z,56.83
2018-09-17T05:09:16.724Z,56.07
2018-09-17T05:10:16.968Z,54.74
2018-09-17T05:11:17.198Z,52.84
2018-09-17T05:12:17.437Z,53.41
2018-09-17T05:13:17.719Z,53.03
2018-09-17T05:14:17.909Z,50.65
2018-09-17T05:15:18.147Z,51.79
2018-09-17T05:16:18.386Z,54.38
2018-09-17T05:17:18.624Z,56.29
2018-09-17T05:18:18.859Z,56.67
2018-09-17T05:19:19.096Z,56.48
2018-09-17T05:20:19.335Z,58.57
2018-09-17T05:21:19.574Z,63.99
2018-09-17T05:22:19.810Z,63.51
2018-09-17T05:23:20.047Z,69.27
2018-09-17T05:24:20.282Z,59.01
2018-09-17T05:25:20.521Z,57.21
2018-09-17T05:26:20.759Z,43.80
2018-09-17T05:27:20.996Z,39.74
2018-09-17T05:28:21.233Z,41.17
2018-09-17T05:29:21.470Z,46.11
2018-09-17T05:30:21.704Z,52.01
2018-09-17T05:31:21.943Z,56.38
2018-09-17T05:32:22.181Z,60.57
2018-09-17T05:33:22.418Z,70.17
2018-09-17T05:34:22.654Z,76.25
2018-09-17T05:35:22.891Z,82.71
2018-09-17T05:36:23.127Z,83.10
2018-09-17T05:37:23.364Z,83.39
2018-09-17T05:38:23.602Z,87.81
2018-09-17T05:39:23.840Z,91.33
2018-09-17T05:40:24.077Z,86.67
2018-09-17T05:41:24.315Z,85.81
2018-09-17T05:42:24.551Z,78.88
2018-09-17T05:43:24.788Z,77.36
2018-09-17T05:44:25.078Z,76.82
2018-09-17T05:45:25.265Z,77.01
2018-09-17T05:46:25.497Z,79.86
2018-09-17T05:47:25.734Z,86.94
2018-09-17T05:48:25.971Z,94.70
2018-09-17T05:49:26.208Z,99.99
2018-09-17T05:50:26.446Z,99.99
2018-09-17T05:51:26.681Z,99.99
2018-09-17T05:52:26.918Z,99.99
2018-09-17T05:53:27.154Z,99.99
2018-09-17T05:54:27.392Z,99.47
2018-09-17T05:55:27.625Z,97.66
2018-09-17T05:56:27.864Z,98.13
2018-09-17T05:57:28.102Z,99.32
2018-09-17T05:58:28.337Z,99.99
2018-09-17T05:59:28.595Z,99.99
2018-09-17T06:00:28.812Z,99.99
2018-09-17T06:01:29.090Z,99.99
2018-09-17T06:02:29.289Z,98.71
2018-09-17T06:03:29.525Z,95.79
2018-09-17T06:04:29.761Z,92.69
2018-09-17T06:05:30.024Z,90.30
2018-09-17T06:06:30.237Z,88.05
2018-09-17T06:07:30.477Z,85.22
2018-09-17T06:08:30.712Z,83.45
2018-09-17T06:09:30.973Z,79.37
2018-09-17T06:10:31.186Z,77.94
2018-09-17T06:11:31.423Z,76.73
2018-09-17T06:12:31.671Z,75.39
2018-09-17T06:13:31.955Z,74.52
2018-09-17T06:14:32.218Z,74.08
2018-09-17T06:15:32.388Z,72.94
2018-09-17T06:16:32.620Z,73.03
2018-09-17T06:17:32.943Z,74.62
2018-09-17T06:18:33.100Z,74.85
2018-09-17T06:19:33.335Z,74.57
2018-09-17T06:20:33.575Z,74.91
2018-09-17T06:21:33.813Z,77.55
2018-09-17T06:22:34.051Z,78.09
2018-09-17T06:23:34.290Z,79.72
2018-09-17T06:24:34.537Z,79.62
2018-09-17T06:25:34.770Z,80.04
2018-09-17T06:26:35.051Z,78.61
2018-09-17T06:27:35.249Z,76.44
2018-09-17T06:28:35.525Z,75.87
2018-09-17T06:29:35.731Z,74.22
2018-09-17T06:30:35.968Z,71.63
2018-09-17T06:31:36.208Z,70.32
2018-09-17T06:32:36.447Z,69.26
2018-09-17T06:33:36.689Z,68.24
2018-09-17T06:34:36.927Z,66.64
2018-09-17T06:35:37.169Z,65.14
2018-09-17T06:36:37.413Z,63.45
2018-09-17T06:37:37.669Z,62.48
2018-09-17T06:38:37.890Z,61.26
2018-09-17T06:39:38.127Z,60.69
2018-09-17T06:40:38.370Z,59.75
2018-09-17T06:41:38.652Z,58.92
2018-09-17T06:42:38.854Z,58.31
2018-09-17T06:43:39.095Z,59.66
2018-09-17T06:44:39.344Z,59.17
2018-09-17T06:45:39.577Z,58.53
2018-09-17T06:46:39.819Z,58.05
2018-09-17T06:47:40.061Z,58.31
2018-09-17T06:48:40.303Z,58.98
2018-09-17T06:49:40.546Z,57.40
2018-09-17T06:50:40.788Z,56.09
2018-09-17T06:51:41.035Z,55.92
2018-09-17T06:52:41.274Z,57.02
2018-09-17T06:53:41.545Z,57.76
2018-09-17T06:54:41.761Z,58.31
2018-09-17T06:55:42.004Z,59.44
2018-09-17T06:56:42.248Z,60.21
2018-09-17T06:57:42.494Z,60.97
2018-09-17T06:58:42.732Z,60.75
2018-09-17T06:59:42.977Z,59.59
2018-09-17T07:00:43.222Z,57.98
2018-09-17T07:01:43.463Z,56.18
2018-09-17T07:02:43.705Z,55.51
2018-09-17T07:03:43.949Z,54.96
2018-09-17T07:04:44.193Z,54.38
2018-09-17T07:05:44.436Z,53.70
2018-09-17T07:06:44.681Z,53.25
2018-09-17T07:07:44.925Z,52.40
2018-09-17T07:08:45.169Z,51.56
2018-09-17T07:09:45.413Z,50.50
2018-09-17T07:10:45.658Z,49.85
2018-09-17T07:11:45.903Z,49.29
2018-09-17T07:12:46.148Z,48.71
2018-09-17T07:13:46.394Z,48.03
2018-09-17T07:14:46.640Z,47.86
2018-09-17T07:15:46.886Z,48.61
2018-09-17T07:16:47.130Z,48.81
2018-09-17T07:17:47.376Z,49.07
2018-09-17T07:18:47.622Z,49.92
2018-09-17T07:19:47.867Z,50.09
2018-09-17T07:20:48.114Z,51.97
2018-09-17T07:21:48.359Z,52.59
2018-09-17T07:22:48.609Z,51.63
2018-09-17T07:23:48.854Z,51.37
2018-09-17T07:24:49.097Z,51.44
2018-09-17T07:25:49.343Z,52.31
2018-09-17T07:26:49.589Z,50.89
2018-09-17T07:27:49.834Z,50.71
2018-09-17T07:28:50.080Z,49.87
2018-09-17T07:29:50.327Z,49.90
2018-09-17T07:30:50.573Z,48.93
2018-09-17T07:31:50.819Z,47.69
2018-09-17T07:32:51.066Z,47.60
2018-09-17T07:33:51.310Z,47.41
2018-09-17T07:34:51.557Z,47.11
2018-09-17T07:35:51.801Z,46.75
2018-09-17T07:36:52.051Z,47.04
2018-09-17T07:37:52.297Z,47.11
2018-09-17T07:38:52.545Z,47.31
2018-09-17T07:39:52.791Z,48.06
2018-09-17T07:40:53.060Z,48.54
2018-09-17T07:41:53.284Z,48.64
2018-09-17T07:42:53.529Z,47.99
2018-09-17T07:43:53.774Z,47.14
2018-09-17T07:44:54.023Z,45.90
2018-09-17T07:45:54.274Z,45.54
2018-09-17T07:46:54.518Z,44.67
2018-09-17T07:47:54.769Z,44.47
2018-09-17T07:48:55.015Z,44.67
2018-09-17T07:49:55.260Z,44.76
2018-09-17T07:50:55.508Z,45.05
2018-09-17T07:51:55.756Z,45.32
2018-09-17T07:52:56.055Z,46.19
2018-09-17T07:53:56.251Z,46.09
2018-09-17T07:54:56.499Z,46.39
2018-09-17T07:55:56.748Z,45.83
2018-09-17T07:56:56.997Z,45.37
2018-09-17T07:57:57.246Z,45.47
2018-09-17T07:58:57.521Z,45.27
2018-09-17T07:59:57.741Z,45.20
2018-09-17T08:00:57.989Z,44.98
2018-09-17T08:01:58.240Z,45.29
2018-09-17T08:02:58.485Z,45.00
2018-09-17T08:03:58.736Z,44.71
2018-09-17T08:04:59.006Z,44.61
2018-09-17T08:05:59.253Z,43.95
2018-09-17T08:06:59.481Z,43.30
2018-09-17T08:07:59.732Z,42.33
2018-09-17T08:08:59.982Z,41.49
2018-09-17T08:10:00.234Z,41.01
2018-09-17T08:11:00.481Z,42.23
2018-09-17T08:12:00.731Z,41.84
2018-09-17T08:13:00.980Z,41.57
2018-09-17T08:14:01.230Z,41.69
2018-09-17T08:15:01.480Z,40.37
2018-09-17T08:16:01.728Z,40.17
2018-09-17T08:17:02.023Z,39.80
2018-09-17T08:18:02.229Z,38.48
2018-09-17T08:19:02.481Z,38.18
2018-09-17T08:20:02.732Z,37.79
2018-09-17T08:21:02.983Z,38.36
2018-09-17T08:22:03.232Z,38.73
2018-09-17T08:23:03.481Z,39.03
2018-09-17T08:24:03.734Z,38.85
2018-09-17T08:25:03.984Z,38.36
2018-09-17T08:26:04.241Z,38.01
2018-09-17T08:27:04.488Z,37.13
2018-09-17T08:28:04.738Z,36.96
2018-09-17T08:29:04.989Z,36.27
2018-09-17T08:30:05.241Z,36.37
2018-09-17T08:31:05.492Z,35.78
2018-09-17T08:32:05.745Z,36.47
2018-09-17T08:33:05.997Z,36.37
2018-09-17T08:34:06.248Z,35.71
2018-09-17T08:35:06.500Z,35.51
2018-09-17T08:36:06.752Z,35.31
2018-09-17T08:37:07.005Z,35.74
2018-09-17T08:38:07.265Z,35.06
2018-09-17T08:39:07.508Z,34.67
2018-09-17T08:40:07.759Z,34.75
2018-09-17T08:41:08.012Z,35.55
2018-09-17T08:42:08.264Z,35.31
2018-09-17T08:43:08.516Z,35.82
2018-09-17T08:44:08.771Z,36.19
2018-09-17T08:45:09.023Z,36.76
2018-09-17T08:46:09.276Z,36.57
2018-09-17T08:47:09.533Z,36.96
2018-09-17T08:48:09.782Z,36.76
2018-09-17T08:49:10.036Z,36.49
2018-09-17T08:50:10.290Z,35.82
2018-09-17T08:51:10.543Z,35.55
2018-09-17T08:52:10.815Z,34.77
2018-09-17T08:53:11.062Z,34.28
2018-09-17T08:54:11.304Z,34.09
2018-09-17T08:55:11.556Z,33.54
2018-09-17T08:56:11.808Z,33.17
2018-09-17T08:57:12.061Z,33.18
2018-09-17T08:58:12.323Z,31.73
2018-09-17T08:59:12.575Z,30.88
2018-09-17T09:00:12.830Z,30.77
2018-09-17T09:01:13.084Z,31.26
2018-09-17T09:02:13.337Z,31.07
2018-09-17T09:03:13.589Z,30.78
2018-09-17T09:04:13.846Z,30.21
2018-09-17T09:05:14.100Z,30.60
2018-09-17T09:06:14.353Z,30.10
2018-09-17T09:07:14.607Z,32.58
2018-09-17T09:08:14.862Z,35.38
2018-09-17T09:09:15.117Z,35.51
2018-09-17T09:10:15.371Z,34.77
2018-09-17T09:11:15.627Z,34.21
2018-09-17T09:12:15.879Z,33.74
2018-09-17T09:13:16.134Z,32.58
2018-09-17T09:14:16.388Z,31.90
2018-09-17T09:15:16.642Z,31.14
2018-09-17T09:16:16.896Z,31.11
2018-09-17T09:17:17.149Z,33.58
2018-09-17T09:18:17.403Z,34.24
2018-09-17T09:19:17.660Z,34.47
2018-09-17T09:20:17.910Z,34.00
2018-09-17T09:21:18.167Z,33.15
2018-09-17T09:22:18.422Z,32.30
2018-09-17T09:23:18.676Z,31.45
2018-09-17T09:24:18.929Z,32.12
2018-09-17T09:25:19.185Z,31.94
2018-09-17T09:26:19.471Z,30.49
2018-09-17T09:27:19.694Z,30.77
2018-09-17T09:28:19.949Z,30.10
2018-09-17T09:29:20.204Z,30.00
2018-09-17T09:30:20.458Z,30.60
2018-09-17T09:31:20.716Z,29.53
2018-09-17T09:32:20.968Z,30.19
2018-09-17T09:33:21.224Z,30.07
2018-09-17T09:34:21.476Z,31.29
2018-09-17T09:35:21.735Z,30.91
2018-09-17T09:36:21.992Z,30.83
2018-09-17T09:37:22.247Z,30.85
2018-09-17T09:38:22.500Z,30.91
2018-09-17T09:39:22.756Z,32.06
2018-09-17T09:40:23.010Z,32.35
2018-09-17T09:41:23.266Z,32.09
2018-09-17T09:42:23.523Z,31.34
2018-09-17T09:43:23.779Z,29.79
2018-09-17T09:44:24.036Z,29.24
2018-09-17T09:45:24.292Z,28.93
2018-09-17T09:46:24.588Z,29.03
2018-09-17T09:47:24.804Z,30.77
2018-09-17T09:48:25.063Z,29.70
2018-09-17T09:49:25.316Z,29.34
2018-09-17T09:50:25.570Z,29.33
2018-09-17T09:51:25.825Z,28.58
2018-09-17T09:52:26.081Z,28.27
2018-09-17T09:53:26.336Z,27.22
2018-09-17T09:54:26.593Z,28.30
2018-09-17T09:55:26.849Z,27.60
2018-09-17T09:56:27.107Z,27.89
2018-09-17T09:57:27.360Z,27.61
2018-09-17T09:58:27.616Z,28.30
2018-09-17T09:59:27.883Z,31.57
2018-09-17T10:00:28.129Z,33.06
2018-09-17T10:01:28.385Z,34.69
2018-09-17T10:02:28.640Z,34.84
2018-09-17T10:03:28.896Z,33.05
2018-09-17T10:04:29.150Z,30.75
2018-09-17T10:05:29.407Z,30.12
2018-09-17T10:06:29.662Z,30.36
2018-09-17T10:07:29.918Z,29.14
2018-09-17T10:08:30.175Z,30.26
2018-09-17T10:09:30.433Z,30.40
2018-09-17T10:10:30.688Z,29.21
2018-09-17T10:11:30.990Z,29.21
2018-09-17T10:12:31.200Z,29.22
2018-09-17T10:13:31.457Z,29.83
2018-09-17T10:14:31.712Z,30.57
2018-09-17T10:15:31.968Z,29.49
2018-09-17T10:16:32.225Z,29.35
2018-09-17T10:17:32.479Z,28.29
2018-09-17T10:18:32.737Z,26.81
2018-09-17T10:19:32.995Z,27.02
2018-09-17T10:20:33.250Z,27.22
2018-09-17T10:21:33.505Z,26.92
2018-09-17T10:22:33.760Z,27.18
2018-09-17T10:23:34.017Z,27.69
2018-09-17T10:24:34.274Z,27.20
2018-09-17T10:25:34.529Z,27.59
2018-09-17T10:26:34.785Z,27.45
2018-09-17T10:27:35.043Z,28.81
2018-09-17T10:28:35.303Z,28.15
2018-09-17T10:29:35.558Z,28.49
2018-09-17T10:30:35.812Z,26.92
2018-09-17T10:31:36.070Z,27.40
2018-09-17T10:32:36.322Z,28.81
2018-09-17T10:33:36.583Z,29.39
2018-09-17T10:34:36.837Z,29.20
2018-09-17T10:35:37.091Z,28.41
2018-09-17T10:36:37.349Z,28.86
2018-09-17T10:37:37.605Z,31.45
2018-09-17T10:38:37.861Z,31.18
2018-09-17T10:39:38.143Z,30.72
2018-09-17T10:40:38.373Z,31.08
2018-09-17T10:41:38.626Z,30.22
2018-09-17T10:42:38.882Z,29.68
2018-09-17T10:43:39.136Z,28.92
2018-09-17T10:44:39.390Z,28.26
2018-09-17T10:45:39.645Z,27.75
2018-09-17T10:46:39.903Z,28.37
2018-09-17T10:47:40.159Z,28.05
2018-09-17T10:48:40.415Z,28.58
2018-09-17T10:49:40.670Z,31.20
2018-09-17T10:50:40.926Z,33.59
2018-09-17T10:51:41.183Z,35.58
2018-09-17T10:52:41.438Z,36.47
2018-09-17T10:53:41.693Z,36.65
2018-09-17T10:54:41.946Z,36.57
2018-09-17T10:55:42.200Z,36.20
2018-09-17T10:56:42.453Z,35.25
2018-09-17T10:57:42.706Z,34.03
2018-09-17T10:58:42.960Z,32.97
2018-09-17T10:59:43.212Z,31.36
2018-09-17T11:00:43.468Z,30.91
2018-09-17T11:01:43.724Z,31.01
2018-09-17T11:02:43.972Z,29.75
2018-09-17T11:03:44.226Z,28.65
2018-09-17T11:04:44.483Z,29.69
2018-09-17T11:05:44.733Z,30.59
2018-09-17T11:06:44.987Z,30.35
2018-09-17T11:07:45.239Z,29.39
2018-09-17T11:08:45.495Z,28.81
2018-09-17T11:09:45.748Z,28.29
2018-09-17T11:10:46.002Z,28.96
2018-09-17T11:11:46.257Z,29.06
2018-09-17T11:12:46.512Z,28.40
2018-09-17T11:13:46.766Z,28.28
2018-09-17T11:14:47.018Z,29.25
2018-09-17T11:15:47.272Z,29.08
2018-09-17T11:16:47.527Z,27.74
2018-09-17T11:17:47.827Z,27.06
2018-09-17T11:18:48.038Z,27.59
2018-09-17T11:19:48.289Z,26.56
2018-09-17T11:20:48.584Z,25.07
2018-09-17T11:21:48.840Z,26.59
2018-09-17T11:22:49.095Z,28.01
2018-09-17T11:23:49.345Z,29.48
2018-09-17T11:24:49.599Z,28.34
2018-09-17T11:25:49.889Z,28.33
2018-09-17T11:26:50.176Z,27.18
2018-09-17T11:27:50.432Z,26.98
2018-09-17T11:28:50.689Z,26.76
2018-09-17T11:29:50.947Z,27.75
2018-09-17T11:30:51.240Z,27.32
2018-09-17T11:31:51.499Z,26.25
2018-09-17T11:32:51.756Z,26.32
2018-09-17T11:33:52.016Z,26.63
2018-09-17T11:34:52.268Z,25.67
2018-09-17T11:35:52.541Z,25.02
2018-09-17T11:36:52.807Z,24.23
2018-09-17T11:37:53.065Z,23.96
2018-09-17T11:38:53.321Z,23.48
2018-09-17T11:39:53.576Z,23.68
2018-09-17T11:40:53.833Z,23.68
2018-09-17T11:41:54.090Z,23.19
2018-09-17T11:42:54.347Z,23.70
2018-09-17T11:43:54.606Z,22.99
2018-09-17T11:44:54.863Z,23.59
2018-09-17T11:45:55.121Z,23.79
2018-09-17T11:46:55.376Z,23.41
2018-09-17T11:47:55.634Z,22.89
2018-09-17T11:48:55.893Z,23.10
2018-09-17T11:49:56.153Z,23.39
2018-09-17T11:50:56.416Z,25.20
2018-09-17T11:51:56.668Z,25.68
2018-09-17T11:52:56.926Z,27.09
2018-09-17T11:53:57.239Z,28.01
2018-09-17T11:54:57.442Z,27.35
2018-09-17T11:55:57.698Z,28.28
2018-09-17T11:56:57.955Z,28.96
2018-09-17T11:57:58.212Z,28.54
2018-09-17T11:58:58.473Z,29.69
2018-09-17T11:59:58.731Z,29.73
2018-09-17T12:00:58.990Z,28.36
2018-09-17T12:01:59.246Z,27.72
2018-09-17T12:02:59.499Z,28.20
2018-09-17T12:03:59.755Z,28.43
2018-09-17T12:05:00.013Z,28.16
2018-09-17T12:06:00.270Z,26.69
2018-09-17T12:07:00.522Z,26.82
2018-09-17T12:08:00.789Z,26.62
2018-09-17T12:09:01.032Z,26.97
2018-09-17T12:10:01.303Z,27.75
2018-09-17T12:11:01.591Z,27.07
2018-09-17T12:12:01.844Z,28.23
2018-09-17T12:13:02.101Z,26.70
2018-09-17T12:14:02.354Z,26.40
2018-09-17T12:15:02.610Z,28.13
2018-09-17T12:16:02.865Z,27.08
2018-09-17T12:17:03.124Z,27.08
2018-09-17T12:18:03.379Z,26.45
2018-09-17T12:19:03.679Z,25.76
2018-09-17T12:20:03.975Z,25.87
2018-09-17T12:21:04.216Z,25.28
2018-09-17T12:22:04.472Z,25.09
2018-09-17T12:23:04.802Z,25.59
2018-09-17T12:24:05.091Z,24.98
2018-09-17T12:25:05.348Z,25.45
2018-09-17T12:26:05.601Z,25.04
2018-09-17T12:27:05.858Z,26.84
2018-09-17T12:28:06.115Z,26.84
2018-09-17T12:29:06.528Z,27.37
2018-09-17T12:30:06.813Z,26.11
2018-09-17T12:31:07.086Z,25.90
2018-09-17T12:32:07.351Z,26.21
2018-09-17T12:33:07.612Z,25.45
2018-09-17T12:34:07.892Z,25.42
2018-09-17T12:35:08.153Z,25.43
2018-09-17T12:36:08.409Z,24.85
2018-09-17T12:37:08.667Z,24.95
2018-09-17T12:38:08.920Z,24.54
2018-09-17T12:39:09.173Z,25.52
2018-09-17T12:40:09.431Z,25.43
2018-09-17T12:41:09.687Z,25.81
2018-09-17T12:42:09.945Z,26.09
2018-09-17T12:43:10.200Z,27.39
2018-09-17T12:44:10.452Z,28.02
2018-09-17T12:45:10.710Z,26.50
2018-09-17T12:46:10.964Z,25.82
2018-09-17T12:47:11.220Z,25.15
2018-09-17T12:48:11.477Z,24.68
2018-09-17T12:49:11.733Z,24.58
2018-09-17T12:50:11.988Z,24.55
2018-09-17T12:51:12.243Z,25.71
2018-09-17T12:52:12.498Z,26.38
2018-09-17T12:53:12.755Z,26.45
2018-09-17T12:54:13.022Z,27.47
2018-09-17T12:55:13.267Z,28.00